createdAt,value
2023-02-19T00:00:14.243Z,11.90
2023-02-19T00:02:41.465Z,11.90
2023-02-19T00:05:08.881Z,11.80
2023-02-19T00:07:36.086Z,11.80
2023-02-19T00:10:03.576Z,11.80
2023-02-19T00:12:30.724Z,11.80
2023-02-19T00:14:58.490Z,11.80
2023-02-19T00:17:25.660Z,11.80
2023-02-19T00:19:52.931Z,11.80
2023-02-19T00:22:20.159Z,11.80
2023-02-19T00:24:49.338Z,11.80
2023-02-19T00:27:16.515Z,11.80
2023-02-19T00:29:43.758Z,11.80
2023-02-19T00:32:11.010Z,11.80
2023-02-19T00:34:38.183Z,11.80
2023-02-19T00:37:05.432Z,11.80
2023-02-19T00:39:32.644Z,11.80
2023-02-19T00:42:00.880Z,11.80
2023-02-19T00:44:27.956Z,11.80
2023-02-19T00:46:55.070Z,11.80
2023-02-19T00:49:23.186Z,11.80
2023-02-19T00:51:51.347Z,11.80
2023-02-19T00:54:18.654Z,11.80
2023-02-19T00:56:46.171Z,11.80
2023-02-19T00:59:13.499Z,11.80
2023-02-19T01:01:41.080Z,11.80
2023-02-19T01:04:08.242Z,11.80
2023-02-19T01:06:35.707Z,11.80
2023-02-19T01:09:04.495Z,11.70
2023-02-19T01:11:31.636Z,11.80
2023-02-19T01:13:59.141Z,11.70
2023-02-19T01:16:27.633Z,11.80
2023-02-19T01:18:56.398Z,11.80
2023-02-19T01:21:24.843Z,11.80
2023-02-19T01:23:52.451Z,11.70
2023-02-19T01:26:21.344Z,11.70
2023-02-19T01:28:48.565Z,11.70
2023-02-19T01:31:17.247Z,11.70
2023-02-19T01:33:46.320Z,11.70
2023-02-19T01:36:14.032Z,11.70
2023-02-19T01:38:41.217Z,11.70
2023-02-19T01:41:10.258Z,11.70
2023-02-19T01:43:56.140Z,11.70
2023-02-19T01:46:27.490Z,11.70
2023-02-19T01:48:56.675Z,11.70
2023-02-19T01:51:23.943Z,11.70
2023-02-19T01:53:54.904Z,11.70
2023-02-19T01:56:22.384Z,11.70
2023-02-19T01:58:49.658Z,11.70
2023-02-19T02:01:16.826Z,11.70
2023-02-19T02:03:45.656Z,11.70
2023-02-19T02:06:19.135Z,11.70
2023-02-19T02:09:05.022Z,11.70
2023-02-19T02:11:32.363Z,11.70
2023-02-19T02:13:59.796Z,11.70
2023-02-19T02:16:33.716Z,11.70
2023-02-19T02:19:00.920Z,11.70
2023-02-19T02:21:34.574Z,11.70
2023-02-19T02:24:15.264Z,11.60
2023-02-19T02:26:57.929Z,11.60
2023-02-19T02:29:43.969Z,11.60
2023-02-19T02:32:20.268Z,11.60
2023-02-19T02:34:58.745Z,11.60
2023-02-19T02:37:27.768Z,11.60
2023-02-19T02:39:56.572Z,11.50
2023-02-19T02:42:29.907Z,11.60
2023-02-19T02:45:36.894Z,11.50
2023-02-19T02:48:18.573Z,11.50
2023-02-19T02:50:57.185Z,11.50
2023-02-19T02:53:55.122Z,11.50
2023-02-19T02:56:22.665Z,11.50
2023-02-19T02:58:50.775Z,11.50
2023-02-19T03:01:42.789Z,11.50
2023-02-19T03:04:13.243Z,11.50
2023-02-19T03:06:41.931Z,11.50
2023-02-19T03:09:16.323Z,11.40
2023-02-19T03:12:11.240Z,11.50
2023-02-19T03:14:59.980Z,11.40
2023-02-19T03:17:48.317Z,11.40
2023-02-19T03:20:17.960Z,11.40
2023-02-19T03:22:46.112Z,11.40
2023-02-19T03:25:34.999Z,11.40
2023-02-19T03:28:03.942Z,11.40
2023-02-19T03:30:36.303Z,11.40
2023-02-19T03:33:08.203Z,11.40
2023-02-19T03:35:40.090Z,11.40
2023-02-19T03:38:41.210Z,11.40
2023-02-19T03:41:20.996Z,11.40
2023-02-19T03:43:56.009Z,11.40
2023-02-19T03:46:35.055Z,11.40
2023-02-19T03:49:09.150Z,11.40
2023-02-19T03:51:46.548Z,11.40
2023-02-19T03:54:22.990Z,11.30
2023-02-19T03:56:59.033Z,11.40
2023-02-19T03:59:44.815Z,11.40
2023-02-19T04:02:14.160Z,11.40
2023-02-19T04:04:45.701Z,11.30
2023-02-19T04:07:13.162Z,11.30
2023-02-19T04:09:46.157Z,11.40
2023-02-19T04:12:19.091Z,11.30
2023-02-19T04:15:05.091Z,11.30
2023-02-19T04:17:37.439Z,11.30
2023-02-19T04:20:07.317Z,11.30
2023-02-19T04:22:36.151Z,11.30
2023-02-19T04:25:03.511Z,11.30
2023-02-19T04:27:30.811Z,11.30
2023-02-19T04:29:58.120Z,11.30
2023-02-19T04:32:25.234Z,11.30
2023-02-19T04:34:54.347Z,11.30
2023-02-19T04:37:21.590Z,11.30
2023-02-19T04:39:48.811Z,11.30
2023-02-19T04:42:15.971Z,11.30
2023-02-19T04:44:43.224Z,11.30
2023-02-19T04:47:10.327Z,11.30
2023-02-19T04:49:37.478Z,11.20
2023-02-19T04:52:04.790Z,11.30
2023-02-19T04:54:31.939Z,11.30
2023-02-19T04:56:59.083Z,11.20
2023-02-19T04:59:26.234Z,11.30
2023-02-19T05:01:53.515Z,11.20
2023-02-19T05:04:20.653Z,11.20
2023-02-19T05:06:47.884Z,11.20
2023-02-19T05:09:15.049Z,11.20
2023-02-19T05:11:43.660Z,11.30
2023-02-19T05:14:10.964Z,11.20
2023-02-19T05:16:38.093Z,11.20
2023-02-19T05:19:05.239Z,11.20
2023-02-19T05:21:32.408Z,11.20
2023-02-19T05:23:59.566Z,11.20
2023-02-19T05:26:26.939Z,11.20
2023-02-19T05:28:54.265Z,11.20
2023-02-19T05:31:21.863Z,11.20
2023-02-19T05:33:51.424Z,11.20
2023-02-19T05:36:19.786Z,11.20
2023-02-19T05:38:47.164Z,11.10
2023-02-19T05:41:18.262Z,11.10
2023-02-19T05:43:46.320Z,11.10
2023-02-19T05:46:14.551Z,11.20
2023-02-19T05:48:42.067Z,11.10
2023-02-19T05:51:13.516Z,11.10
2023-02-19T05:53:41.192Z,11.10
2023-02-19T05:56:23.749Z,11.10
2023-02-19T05:58:50.998Z,11.10
2023-02-19T06:01:19.179Z,11.10
2023-02-19T06:03:46.351Z,11.10
2023-02-19T06:06:14.492Z,11.10
2023-02-19T06:08:41.627Z,11.10
2023-02-19T06:11:09.005Z,11.10
2023-02-19T06:13:36.458Z,11.10
2023-02-19T06:16:04.752Z,11.10
2023-02-19T06:18:31.961Z,11.10
2023-02-19T06:21:03.123Z,11.10
2023-02-19T06:23:30.570Z,11.10
2023-02-19T06:26:09.632Z,11.10
2023-02-19T06:28:37.260Z,11.10
2023-02-19T06:31:04.994Z,11.10
2023-02-19T06:33:32.499Z,11.10
2023-02-19T06:36:00.772Z,11.10
2023-02-19T06:38:28.145Z,11.10
2023-02-19T06:40:55.561Z,11.10
2023-02-19T06:43:22.730Z,11.10
2023-02-19T06:45:49.915Z,11.10
2023-02-19T06:48:17.125Z,11.10
2023-02-19T06:50:44.732Z,11.10
2023-02-19T06:53:11.849Z,11.10
2023-02-19T06:55:40.434Z,11.20
2023-02-19T06:58:07.977Z,11.20
2023-02-19T07:00:35.257Z,11.20
2023-02-19T07:03:04.500Z,11.20
2023-02-19T07:05:32.645Z,11.20
2023-02-19T07:07:59.778Z,11.20
2023-02-19T07:10:26.977Z,11.30
2023-02-19T07:12:54.093Z,11.30
2023-02-19T07:15:21.162Z,11.40
2023-02-19T07:17:48.331Z,11.40
2023-02-19T07:20:15.536Z,11.40
2023-02-19T07:22:42.657Z,11.40
2023-02-19T07:25:09.822Z,11.50
2023-02-19T07:27:37.587Z,11.50
2023-02-19T07:30:05.026Z,11.40
2023-02-19T07:32:32.219Z,11.40
2023-02-19T07:34:59.384Z,11.50
2023-02-19T07:37:26.512Z,11.50
2023-02-19T07:39:53.686Z,11.50
2023-02-19T07:42:20.865Z,11.60
2023-02-19T07:44:47.934Z,11.60
2023-02-19T07:47:15.086Z,11.60
2023-02-19T07:49:42.226Z,11.70
2023-02-19T07:52:09.486Z,11.70
2023-02-19T07:54:36.663Z,11.70
2023-02-19T07:57:03.849Z,11.70
2023-02-19T07:59:31.060Z,11.80
2023-02-19T08:02:16.700Z,11.80
2023-02-19T08:04:44.066Z,11.80
2023-02-19T08:07:11.243Z,11.80
2023-02-19T08:09:38.409Z,11.80
2023-02-19T08:12:24.343Z,11.80
2023-02-19T08:14:51.472Z,11.80
2023-02-19T08:17:18.633Z,11.70
2023-02-19T08:19:45.754Z,11.70
2023-02-19T08:22:12.931Z,11.70
2023-02-19T08:24:42.981Z,11.70
2023-02-19T08:27:10.175Z,11.70
2023-02-19T08:29:37.304Z,11.70
2023-02-19T08:32:04.547Z,11.70
2023-02-19T08:34:31.827Z,11.70
2023-02-19T08:36:58.945Z,11.70
2023-02-19T08:39:26.113Z,11.70
2023-02-19T08:41:53.296Z,11.70
2023-02-19T08:44:20.489Z,11.70
2023-02-19T08:46:47.679Z,11.70
2023-02-19T08:49:16.018Z,11.70
2023-02-19T08:51:43.118Z,11.60
2023-02-19T08:54:10.624Z,11.60
2023-02-19T08:56:37.750Z,11.60
2023-02-19T08:59:04.902Z,11.60
2023-02-19T09:01:32.141Z,11.70
2023-02-19T09:03:59.298Z,11.70
2023-02-19T09:06:26.659Z,11.70
2023-02-19T09:08:53.798Z,11.70
2023-02-19T09:11:21.029Z,11.70
2023-02-19T09:13:48.183Z,11.80
2023-02-19T09:16:15.311Z,11.80
2023-02-19T09:18:42.474Z,11.80
2023-02-19T09:21:10.015Z,11.80
2023-02-19T09:23:37.663Z,11.80
2023-02-19T09:26:08.658Z,11.80
2023-02-19T09:28:35.792Z,11.90
2023-02-19T09:31:06.735Z,11.90
2023-02-19T09:33:34.039Z,11.90
2023-02-19T09:36:01.567Z,12.00
2023-02-19T09:38:30.304Z,12.00
2023-02-19T09:40:58.007Z,12.00
2023-02-19T09:43:27.718Z,12.00
2023-02-19T09:46:01.437Z,12.00
2023-02-19T09:48:29.928Z,12.00
2023-02-19T09:50:57.330Z,11.90
2023-02-19T09:53:27.268Z,11.90
2023-02-19T09:55:54.560Z,11.90
2023-02-19T09:58:29.917Z,11.90
2023-02-19T10:00:58.467Z,12.00
2023-02-19T10:03:31.895Z,12.00
2023-02-19T10:06:00.195Z,12.00
2023-02-19T10:08:27.587Z,12.00
2023-02-19T10:10:54.940Z,12.10
2023-02-19T10:13:23.584Z,12.10
2023-02-19T10:15:56.010Z,12.20
2023-02-19T10:18:24.535Z,12.30
2023-02-19T10:20:52.594Z,12.40
2023-02-19T10:23:20.268Z,12.50
2023-02-19T10:25:49.286Z,12.50
2023-02-19T10:28:20.328Z,12.70
2023-02-19T10:30:51.018Z,12.80
2023-02-19T10:33:18.190Z,12.90
2023-02-19T10:35:57.347Z,12.90
2023-02-19T10:38:39.040Z,13.00
2023-02-19T10:41:22.816Z,13.00
2023-02-19T10:43:55.817Z,12.90
2023-02-19T10:46:24.204Z,12.90
2023-02-19T10:49:05.099Z,12.80
2023-02-19T10:51:34.909Z,12.80
2023-02-19T10:54:04.824Z,12.80
2023-02-19T10:56:33.726Z,12.90
2023-02-19T10:59:22.888Z,12.90
2023-02-19T11:02:13.019Z,12.90
2023-02-19T11:04:40.181Z,13.00
2023-02-19T11:07:08.455Z,13.10
2023-02-19T11:09:40.248Z,13.40
2023-02-19T11:12:09.444Z,13.60
2023-02-19T11:14:36.799Z,13.80
2023-02-19T11:17:05.665Z,14.00
2023-02-19T11:19:36.794Z,14.10
2023-02-19T11:22:21.020Z,14.00
2023-02-19T11:24:54.556Z,14.20
2023-02-19T11:27:24.195Z,14.30
2023-02-19T11:29:51.379Z,14.30
2023-02-19T11:32:21.419Z,14.30
2023-02-19T11:34:48.574Z,14.30
2023-02-19T11:37:17.009Z,14.30
2023-02-19T11:39:45.468Z,14.20
2023-02-19T11:42:18.804Z,14.20
2023-02-19T11:45:02.092Z,14.20
2023-02-19T11:47:39.825Z,14.10
2023-02-19T11:50:12.865Z,13.90
2023-02-19T11:52:48.963Z,14.00
2023-02-19T11:55:34.897Z,13.90
2023-02-19T11:58:34.341Z,14.00
2023-02-19T12:01:23.514Z,14.40
2023-02-19T12:03:53.789Z,14.50
2023-02-19T12:06:37.672Z,14.80
2023-02-19T12:09:18.538Z,14.80
2023-02-19T12:11:53.625Z,15.10
2023-02-19T12:14:26.959Z,15.30
2023-02-19T12:17:14.345Z,15.40
2023-02-19T12:19:45.143Z,15.50
2023-02-19T12:22:26.984Z,15.70
2023-02-19T12:25:12.813Z,15.80
2023-02-19T12:27:42.743Z,15.90
2023-02-19T12:30:20.131Z,16.00
2023-02-19T12:33:05.741Z,16.00
2023-02-19T12:35:41.842Z,16.10
2023-02-19T12:38:09.050Z,16.20
2023-02-19T12:40:46.071Z,16.40
2023-02-19T12:43:21.321Z,16.40
2023-02-19T12:46:00.466Z,16.40
2023-02-19T12:48:27.696Z,16.50
2023-02-19T12:51:02.809Z,16.60
2023-02-19T12:53:37.996Z,16.60
2023-02-19T12:56:09.427Z,16.70
2023-02-19T12:58:43.020Z,16.80
2023-02-19T13:01:13.846Z,16.80
2023-02-19T13:03:46.017Z,16.80
2023-02-19T13:06:24.229Z,16.90
2023-02-19T13:09:06.246Z,16.90
2023-02-19T13:11:42.888Z,16.90
2023-02-19T13:14:12.873Z,16.90
2023-02-19T13:16:42.394Z,16.90
2023-02-19T13:19:11.568Z,16.90
2023-02-19T13:21:57.238Z,16.90
2023-02-19T13:24:43.228Z,17.00
2023-02-19T13:27:20.419Z,17.00
2023-02-19T13:29:47.548Z,17.00
2023-02-19T13:32:14.757Z,17.00
2023-02-19T13:34:44.983Z,17.00
2023-02-19T13:37:12.206Z,17.00
2023-02-19T13:39:45.792Z,17.10
2023-02-19T13:42:22.510Z,17.10
2023-02-19T13:44:52.930Z,17.20
2023-02-19T13:47:41.005Z,17.10
2023-02-19T13:50:17.444Z,17.10
2023-02-19T13:52:44.676Z,17.10
2023-02-19T13:55:30.451Z,17.20
2023-02-19T13:58:17.506Z,17.10
2023-02-19T14:00:51.959Z,17.10
2023-02-19T14:03:28.478Z,17.10
2023-02-19T14:06:01.089Z,17.10
2023-02-19T14:08:46.529Z,17.10
2023-02-19T14:11:15.040Z,17.10
2023-02-19T14:13:51.389Z,17.00
2023-02-19T14:16:30.911Z,16.80
2023-02-19T14:18:58.077Z,16.70
2023-02-19T14:21:26.220Z,16.70
2023-02-19T14:23:58.096Z,16.60
2023-02-19T14:26:25.655Z,16.60
2023-02-19T14:28:53.238Z,16.60
2023-02-19T14:31:29.275Z,16.50
2023-02-19T14:33:59.270Z,16.40
2023-02-19T14:36:48.631Z,16.30
2023-02-19T14:39:29.949Z,16.10
2023-02-19T14:42:01.936Z,16.00
2023-02-19T14:44:30.202Z,15.90
2023-02-19T14:47:00.519Z,15.80
2023-02-19T14:49:30.119Z,15.60
2023-02-19T14:51:59.570Z,15.50
2023-02-19T14:54:33.703Z,15.50
2023-02-19T14:57:02.077Z,15.40
2023-02-19T14:59:29.949Z,15.30
2023-02-19T15:02:17.913Z,15.30
2023-02-19T15:04:45.146Z,15.20
2023-02-19T15:07:17.398Z,15.10
2023-02-19T15:09:46.962Z,15.10
2023-02-19T15:12:16.243Z,15.00
2023-02-19T15:14:45.188Z,15.00
2023-02-19T15:17:19.719Z,15.00
2023-02-19T15:19:47.241Z,14.90
2023-02-19T15:22:22.184Z,14.90
2023-02-19T15:24:49.649Z,14.80
2023-02-19T15:27:24.971Z,14.80
2023-02-19T15:29:53.895Z,14.80
2023-02-19T15:32:24.048Z,14.70
2023-02-19T15:34:58.369Z,14.70
2023-02-19T15:37:35.915Z,14.70
2023-02-19T15:40:07.686Z,14.70
2023-02-19T15:42:35.856Z,14.60
2023-02-19T15:45:18.084Z,14.60
2023-02-19T15:48:10.830Z,14.50
2023-02-19T15:50:44.111Z,14.50
2023-02-19T15:53:19.627Z,14.50
2023-02-19T15:56:02.060Z,14.50
2023-02-19T15:58:42.663Z,14.50
2023-02-19T16:01:18.904Z,14.40
2023-02-19T16:03:47.445Z,14.40
2023-02-19T16:06:17.282Z,14.40
2023-02-19T16:09:05.796Z,14.30
2023-02-19T16:11:39.885Z,14.30
2023-02-19T16:14:36.460Z,14.30
2023-02-19T16:17:14.753Z,14.20
2023-02-19T16:20:02.313Z,14.20
2023-02-19T16:22:33.830Z,14.20
2023-02-19T16:25:04.174Z,14.10
2023-02-19T16:27:33.680Z,14.10
2023-02-19T16:30:26.566Z,14.00
2023-02-19T16:33:37.069Z,14.00
2023-02-19T16:36:33.331Z,14.00
2023-02-19T16:39:03.767Z,14.00
2023-02-19T16:41:31.150Z,13.80
2023-02-19T16:43:58.451Z,13.70
2023-02-19T16:46:25.790Z,13.60
2023-02-19T16:48:54.161Z,13.50
2023-02-19T16:51:26.150Z,13.50
2023-02-19T16:53:53.760Z,13.40
2023-02-19T16:56:23.070Z,13.30
2023-02-19T16:58:50.782Z,13.30
2023-02-19T17:01:18.593Z,13.20
2023-02-19T17:03:47.810Z,13.20
2023-02-19T17:06:16.255Z,13.20
2023-02-19T17:08:46.459Z,13.20
2023-02-19T17:11:16.140Z,13.20
2023-02-19T17:13:47.682Z,13.10
2023-02-19T17:16:20.774Z,13.10
2023-02-19T17:18:48.160Z,13.10
2023-02-19T17:21:25.175Z,13.00
2023-02-19T17:23:54.000Z,13.00
2023-02-19T17:26:28.072Z,13.00
2023-02-19T17:29:00.433Z,12.90
2023-02-19T17:31:28.592Z,12.90
2023-02-19T17:33:56.177Z,12.90
2023-02-19T17:36:32.860Z,12.80
2023-02-19T17:39:02.542Z,12.80
2023-02-19T17:41:30.159Z,12.80
2023-02-19T17:43:57.505Z,12.80
2023-02-19T17:46:26.898Z,12.80
2023-02-19T17:48:54.921Z,12.80
2023-02-19T17:51:22.853Z,12.80
2023-02-19T17:53:50.247Z,12.70
2023-02-19T17:56:22.092Z,12.70
2023-02-19T17:58:49.360Z,12.70
2023-02-19T18:01:16.781Z,12.60
2023-02-19T18:03:44.555Z,12.60
2023-02-19T18:06:12.527Z,12.60
2023-02-19T18:08:40.086Z,12.50
2023-02-19T18:11:08.017Z,12.50
2023-02-19T18:13:35.449Z,12.50
2023-02-19T18:16:02.775Z,12.50
2023-02-19T18:18:30.521Z,12.50
2023-02-19T18:20:58.176Z,12.40
2023-02-19T18:23:26.055Z,12.40
2023-02-19T18:25:53.399Z,12.40
2023-02-19T18:28:20.913Z,12.40
2023-02-19T18:30:48.533Z,12.40
2023-02-19T18:33:16.073Z,12.40
2023-02-19T18:35:43.449Z,12.30
2023-02-19T18:38:10.769Z,12.30
2023-02-19T18:40:38.099Z,12.30
2023-02-19T18:43:05.875Z,12.30
2023-02-19T18:45:37.095Z,12.30
2023-02-19T18:48:05.443Z,12.40
2023-02-19T18:50:34.835Z,12.50
2023-02-19T18:53:02.253Z,12.60
2023-02-19T18:55:29.632Z,12.70
2023-02-19T18:57:57.019Z,12.70
2023-02-19T19:00:26.683Z,12.70
2023-02-19T19:03:00.352Z,12.80
2023-02-19T19:05:28.312Z,12.70
2023-02-19T19:07:59.193Z,12.80
2023-02-19T19:10:27.099Z,12.80
2023-02-19T19:12:54.648Z,12.80
2023-02-19T19:15:22.878Z,12.80
2023-02-19T19:17:50.697Z,12.90
2023-02-19T19:20:20.400Z,13.00
2023-02-19T19:22:52.294Z,12.90
2023-02-19T19:25:21.188Z,12.90
2023-02-19T19:27:50.794Z,12.90
2023-02-19T19:30:20.163Z,12.90
2023-02-19T19:32:49.636Z,12.90
2023-02-19T19:35:18.595Z,12.90
2023-02-19T19:37:46.265Z,12.90
2023-02-19T19:40:15.521Z,12.90
2023-02-19T19:42:44.519Z,12.90
2023-02-19T19:45:13.831Z,12.90
2023-02-19T19:47:41.281Z,12.90
2023-02-19T19:50:09.176Z,12.90
2023-02-19T19:52:36.691Z,12.90
2023-02-19T19:55:04.328Z,12.90
2023-02-19T19:57:31.615Z,12.90
2023-02-19T19:59:59.050Z,13.00
2023-02-19T20:02:26.434Z,12.90
2023-02-19T20:04:53.863Z,13.00
2023-02-19T20:07:21.417Z,12.90
2023-02-19T20:09:49.908Z,13.00
2023-02-19T20:12:17.918Z,13.00
2023-02-19T20:14:46.735Z,12.90
2023-02-19T20:17:14.523Z,13.00
2023-02-19T20:19:41.999Z,13.00
2023-02-19T20:22:09.929Z,13.00
2023-02-19T20:24:37.298Z,13.00
2023-02-19T20:27:04.836Z,13.00
2023-02-19T20:29:35.700Z,13.00
2023-02-19T20:32:03.864Z,13.00
2023-02-19T20:34:31.632Z,12.90
2023-02-19T20:36:59.485Z,13.00
2023-02-19T20:39:29.240Z,13.00
2023-02-19T20:41:58.232Z,13.00
2023-02-19T20:44:29.160Z,13.00
2023-02-19T20:46:58.007Z,13.00
2023-02-19T20:49:28.353Z,13.00
2023-02-19T20:51:58.378Z,13.00
2023-02-19T20:54:28.989Z,13.00
2023-02-19T20:56:59.052Z,13.00
2023-02-19T20:59:30.793Z,13.00
2023-02-19T21:01:58.534Z,13.00
2023-02-19T21:04:26.105Z,13.00
2023-02-19T21:06:53.521Z,13.00
2023-02-19T21:09:22.077Z,13.00
2023-02-19T21:11:50.694Z,13.00
2023-02-19T21:14:18.347Z,13.00
2023-02-19T21:16:45.802Z,13.00
2023-02-19T21:19:13.261Z,13.00
2023-02-19T21:21:40.649Z,13.00
2023-02-19T21:24:10.563Z,13.00
2023-02-19T21:26:40.575Z,13.00
2023-02-19T21:29:13.037Z,13.00
2023-02-19T21:31:42.584Z,13.00
2023-02-19T21:34:13.200Z,12.90
2023-02-19T21:36:40.567Z,12.90
2023-02-19T21:39:09.778Z,13.00
2023-02-19T21:41:37.324Z,12.90
2023-02-19T21:44:05.035Z,13.00
2023-02-19T21:46:35.840Z,12.90
2023-02-19T21:49:04.969Z,12.90
2023-02-19T21:51:35.248Z,12.90
2023-02-19T21:54:03.606Z,12.90
2023-02-19T21:56:35.820Z,13.00
2023-02-19T21:59:03.971Z,13.00
2023-02-19T22:01:38.837Z,13.00
2023-02-19T22:04:08.094Z,13.00
2023-02-19T22:06:35.829Z,12.90
2023-02-19T22:09:03.273Z,12.90
2023-02-19T22:11:30.667Z,12.90
2023-02-19T22:13:58.353Z,12.90
2023-02-19T22:16:26.374Z,13.00
2023-02-19T22:18:56.402Z,12.90
2023-02-19T22:21:26.135Z,12.90
2023-02-19T22:23:54.499Z,12.90
2023-02-19T22:26:26.906Z,12.90
2023-02-19T22:28:55.201Z,12.90
2023-02-19T22:31:24.894Z,12.90
2023-02-19T22:33:53.129Z,12.90
2023-02-19T22:36:23.707Z,12.90
2023-02-19T22:38:51.326Z,12.90
2023-02-19T22:41:19.795Z,12.90
2023-02-19T22:43:47.612Z,12.90
2023-02-19T22:46:23.890Z,12.90
2023-02-19T22:48:51.570Z,12.90
2023-02-19T22:51:21.235Z,12.90
2023-02-19T22:53:50.972Z,12.90
2023-02-19T22:56:19.587Z,12.90
2023-02-19T22:58:46.950Z,12.90
2023-02-19T23:01:15.105Z,12.90
2023-02-19T23:03:50.973Z,12.90
2023-02-19T23:06:23.382Z,12.90
2023-02-19T23:08:51.826Z,12.90
2023-02-19T23:11:25.149Z,12.90
2023-02-19T23:13:53.417Z,12.90
2023-02-19T23:16:20.864Z,12.90
2023-02-19T23:18:48.857Z,12.90
2023-02-19T23:21:17.638Z,12.90
2023-02-19T23:23:46.305Z,12.90
2023-02-19T23:26:15.235Z,12.90
2023-02-19T23:28:43.935Z,12.90
2023-02-19T23:31:12.785Z,12.90
2023-02-19T23:33:40.378Z,12.90
2023-02-19T23:36:08.600Z,12.90
2023-02-19T23:38:36.027Z,12.90
2023-02-19T23:41:03.919Z,12.90
2023-02-19T23:43:31.220Z,12.90
2023-02-19T23:45:58.632Z,12.90
2023-02-19T23:48:25.956Z,12.90
2023-02-19T23:50:53.309Z,12.90
2023-02-19T23:53:20.738Z,12.90
2023-02-19T23:55:48.122Z,12.90
2023-02-19T23:58:15.661Z,12.90
